createdAt,value
2018-04-19T00:01:55.695Z,10.00
2018-04-19T00:04:24.791Z,10.00
2018-04-19T00:06:53.894Z,10.00
2018-04-19T00:09:22.894Z,10.00
2018-04-19T00:11:51.701Z,9.90
2018-04-19T00:14:20.678Z,9.80
2018-04-19T00:16:49.241Z,9.70
2018-04-19T00:19:18.133Z,9.70
2018-04-19T00:21:47.079Z,9.80
2018-04-19T00:24:15.926Z,9.70
2018-04-19T00:26:44.914Z,9.60
2018-04-19T00:29:13.579Z,9.70
2018-04-19T00:31:42.695Z,9.60
2018-04-19T00:34:11.390Z,9.60
2018-04-19T00:36:40.159Z,9.50
2018-04-19T00:39:08.719Z,9.50
2018-04-19T00:41:38.264Z,9.50
2018-04-19T00:44:07.451Z,9.40
2018-04-19T00:46:36.446Z,9.30
2018-04-19T00:49:05.569Z,9.40
2018-04-19T00:51:34.739Z,9.30
2018-04-19T00:54:03.722Z,9.40
2018-04-19T00:56:32.443Z,9.40
2018-04-19T00:59:01.356Z,9.30
2018-04-19T01:01:30.226Z,9.40
2018-04-19T01:03:59.390Z,9.40
2018-04-19T01:06:28.491Z,9.20
2018-04-19T01:08:57.525Z,9.10
2018-04-19T01:11:26.593Z,9.10
2018-04-19T01:13:55.310Z,9.10
2018-04-19T01:16:23.976Z,9.00
2018-04-19T01:18:52.737Z,8.90
2018-04-19T01:21:21.808Z,8.90
2018-04-19T01:23:50.928Z,8.90
2018-04-19T01:26:20.024Z,8.80
2018-04-19T01:28:48.710Z,8.80
2018-04-19T01:31:17.809Z,8.70
2018-04-19T01:33:46.491Z,8.70
2018-04-19T01:36:26.910Z,8.70
2018-04-19T01:38:56.053Z,8.70
2018-04-19T01:41:25.243Z,8.50
2018-04-19T01:43:54.339Z,8.50
2018-04-19T01:46:23.433Z,8.40
2018-04-19T01:48:51.921Z,8.40
2018-04-19T01:51:20.808Z,8.30
2018-04-19T01:53:49.428Z,8.30
2018-04-19T01:56:18.493Z,8.20
2018-04-19T01:58:47.165Z,8.10
2018-04-19T02:01:15.853Z,8.00
2018-04-19T02:03:44.368Z,8.00
2018-04-19T02:06:13.329Z,8.00
2018-04-19T02:08:42.330Z,8.00
2018-04-19T02:11:11.520Z,7.90
2018-04-19T02:13:40.637Z,7.90
2018-04-19T02:16:09.557Z,7.90
2018-04-19T02:18:38.398Z,7.90
2018-04-19T02:21:07.464Z,7.80
2018-04-19T02:23:36.590Z,7.80
2018-04-19T02:26:05.682Z,7.80
2018-04-19T02:28:34.779Z,7.80
2018-04-19T02:31:03.463Z,7.70
2018-04-19T02:33:32.526Z,7.70
2018-04-19T02:36:01.590Z,7.60
2018-04-19T02:38:30.329Z,7.60
2018-04-19T02:40:59.436Z,7.60
2018-04-19T02:43:28.440Z,7.60
2018-04-19T02:45:57.480Z,7.60
2018-04-19T02:48:26.197Z,7.60
2018-04-19T02:50:55.406Z,7.60
2018-04-19T02:53:24.383Z,7.60
2018-04-19T02:55:53.097Z,7.60
2018-04-19T02:58:22.286Z,7.60
2018-04-19T03:00:50.771Z,7.60
2018-04-19T03:03:19.658Z,7.60
2018-04-19T03:05:48.344Z,7.60
2018-04-19T03:08:17.361Z,7.60
2018-04-19T03:10:46.121Z,7.60
2018-04-19T03:13:15.143Z,7.60
2018-04-19T03:15:43.805Z,7.50
2018-04-19T03:18:12.501Z,7.40
2018-04-19T03:20:41.683Z,7.30
2018-04-19T03:23:10.368Z,7.30
2018-04-19T03:25:39.374Z,7.20
2018-04-19T03:28:07.892Z,7.30
2018-04-19T03:30:36.659Z,7.30
2018-04-19T03:33:05.452Z,7.30
2018-04-19T03:35:34.617Z,7.30
2018-04-19T03:38:03.236Z,7.30
2018-04-19T03:40:31.981Z,7.30
2018-04-19T03:43:01.018Z,7.30
2018-04-19T03:45:29.686Z,7.30
2018-04-19T03:47:58.454Z,7.30
2018-04-19T03:50:27.552Z,7.30
2018-04-19T03:52:56.635Z,7.40
2018-04-19T03:55:25.279Z,7.50
2018-04-19T03:57:54.222Z,7.50
2018-04-19T04:00:23.060Z,7.50
2018-04-19T04:02:52.104Z,7.40
2018-04-19T04:05:20.625Z,7.40
2018-04-19T04:07:49.584Z,7.50
2018-04-19T04:10:18.578Z,7.60
2018-04-19T04:12:47.220Z,7.50
2018-04-19T04:15:15.940Z,7.60
2018-04-19T04:17:56.613Z,7.50
2018-04-19T04:20:36.955Z,7.60
2018-04-19T04:23:31.587Z,7.60
2018-04-19T04:26:00.251Z,7.50
2018-04-19T04:28:30.193Z,7.40
2018-04-19T04:30:59.373Z,7.40
2018-04-19T04:33:28.377Z,7.40
2018-04-19T04:35:57.295Z,7.50
2018-04-19T04:38:26.241Z,7.50
2018-04-19T04:40:54.903Z,7.50
2018-04-19T04:43:23.945Z,7.60
2018-04-19T04:45:52.611Z,7.50
2018-04-19T04:48:21.329Z,7.50
2018-04-19T04:50:50.486Z,7.50
2018-04-19T04:53:19.539Z,7.50
2018-04-19T04:55:49.087Z,7.60
2018-04-19T04:58:17.719Z,7.70
2018-04-19T05:00:46.472Z,7.60
2018-04-19T05:03:15.477Z,7.80
2018-04-19T05:05:44.708Z,7.80
2018-04-19T05:08:13.636Z,7.80
2018-04-19T05:10:42.429Z,7.80
2018-04-19T05:13:11.521Z,7.70
2018-04-19T05:15:40.537Z,7.80
2018-04-19T05:18:09.304Z,8.30
2018-04-19T05:20:38.295Z,9.00
2018-04-19T05:23:07.014Z,9.60
2018-04-19T05:25:36.105Z,10.00
2018-04-19T05:28:05.124Z,10.40
2018-04-19T05:30:34.290Z,10.60
2018-04-19T05:33:03.055Z,10.70
2018-04-19T05:35:32.148Z,11.10
2018-04-19T05:38:00.820Z,11.40
2018-04-19T05:40:29.933Z,11.80
2018-04-19T05:42:59.029Z,12.20
2018-04-19T05:45:28.065Z,12.40
2018-04-19T05:47:56.832Z,12.40
2018-04-19T05:50:25.338Z,12.10
2018-04-19T05:52:54.185Z,12.10
2018-04-19T05:55:23.286Z,12.00
2018-04-19T05:57:52.275Z,11.80
2018-04-19T06:00:20.967Z,11.60
2018-04-19T06:02:50.109Z,11.80
2018-04-19T06:05:19.247Z,11.70
2018-04-19T06:07:48.138Z,11.80
2018-04-19T06:10:16.962Z,11.80
2018-04-19T06:12:46.125Z,11.70
2018-04-19T06:15:15.079Z,11.80
2018-04-19T06:17:43.582Z,11.80
2018-04-19T06:20:13.378Z,11.70
2018-04-19T06:22:42.506Z,11.70
2018-04-19T06:25:11.161Z,11.80
2018-04-19T06:27:39.805Z,11.80
2018-04-19T06:30:08.975Z,11.70
2018-04-19T06:32:37.988Z,11.70
2018-04-19T06:35:06.761Z,11.70
2018-04-19T06:37:35.258Z,11.90
2018-04-19T06:40:03.822Z,12.10
2018-04-19T06:42:32.463Z,12.20
2018-04-19T06:45:00.946Z,12.30
2018-04-19T06:47:29.427Z,12.40
2018-04-19T06:49:57.951Z,12.30
2018-04-19T06:52:26.733Z,12.30
2018-04-19T06:54:55.265Z,12.40
2018-04-19T06:57:23.774Z,12.70
2018-04-19T06:59:52.386Z,12.60
2018-04-19T07:02:21.768Z,12.50
2018-04-19T07:04:50.984Z,12.60
2018-04-19T07:07:19.931Z,12.70
2018-04-19T07:09:48.746Z,12.80
2018-04-19T07:12:17.385Z,12.60
2018-04-19T07:14:45.956Z,12.80
2018-04-19T07:17:14.590Z,13.00
2018-04-19T07:19:43.077Z,13.00
2018-04-19T07:22:11.605Z,13.00
2018-04-19T07:24:40.129Z,12.90
2018-04-19T07:27:09.459Z,13.50
2018-04-19T07:29:37.996Z,13.40
2018-04-19T07:32:06.556Z,13.80
2018-04-19T07:34:36.032Z,14.00
2018-04-19T07:37:04.683Z,14.30
2018-04-19T07:39:33.184Z,14.50
2018-04-19T07:42:01.694Z,14.20
2018-04-19T07:44:30.179Z,14.10
2018-04-19T07:46:58.723Z,14.30
2018-04-19T07:49:27.288Z,14.20
2018-04-19T07:51:55.821Z,14.30
2018-04-19T07:54:24.332Z,14.40
2018-04-19T07:56:52.854Z,14.50
2018-04-19T07:59:22.247Z,15.30
2018-04-19T08:01:50.847Z,15.30
2018-04-19T08:04:20.267Z,15.20
2018-04-19T08:06:48.764Z,15.10
2018-04-19T08:09:17.427Z,15.00
2018-04-19T08:11:46.219Z,14.90
2018-04-19T08:14:14.876Z,14.90
2018-04-19T08:16:43.581Z,15.10
2018-04-19T08:19:12.832Z,15.40
2018-04-19T08:21:41.373Z,15.50
2018-04-19T08:24:09.993Z,15.60
2018-04-19T08:26:38.479Z,15.80
2018-04-19T08:29:06.961Z,15.90
2018-04-19T08:31:36.105Z,15.80
2018-04-19T08:34:04.609Z,15.70
2018-04-19T08:36:33.587Z,16.00
2018-04-19T08:39:02.147Z,16.10
2018-04-19T08:41:30.681Z,16.10
2018-04-19T08:43:59.444Z,16.10
2018-04-19T08:46:27.962Z,15.90
2018-04-19T08:48:56.468Z,15.80
2018-04-19T08:51:24.975Z,15.90
2018-04-19T08:53:54.393Z,16.10
2018-04-19T08:56:23.421Z,16.10
2018-04-19T08:58:51.950Z,16.00
2018-04-19T09:01:20.502Z,15.90
2018-04-19T09:03:49.003Z,16.00
2018-04-19T09:06:17.529Z,16.10
2018-04-19T09:08:47.119Z,16.60
2018-04-19T09:11:15.635Z,16.50
2018-04-19T09:13:44.120Z,16.60
2018-04-19T09:16:12.757Z,17.00
2018-04-19T09:18:41.657Z,16.90
2018-04-19T09:21:10.749Z,16.70
2018-04-19T09:23:39.209Z,16.70
2018-04-19T09:26:10.650Z,16.90
2018-04-19T09:28:39.374Z,16.90
2018-04-19T09:31:08.111Z,17.10
2018-04-19T09:33:38.583Z,17.50
2018-04-19T09:36:07.250Z,17.40
2018-04-19T09:38:36.055Z,17.50
2018-04-19T09:41:04.947Z,17.50
2018-04-19T09:43:33.753Z,17.10
2018-04-19T09:46:02.520Z,17.20
2018-04-19T09:48:32.063Z,17.40
2018-04-19T09:51:02.172Z,17.50
2018-04-19T09:53:30.866Z,17.30
2018-04-19T09:55:59.694Z,16.90
2018-04-19T09:58:28.778Z,16.90
2018-04-19T10:01:03.095Z,17.20
2018-04-19T10:03:37.662Z,17.10
2018-04-19T10:06:08.231Z,17.10
2018-04-19T10:08:37.567Z,17.40
2018-04-19T10:11:06.069Z,17.30
2018-04-19T10:13:35.269Z,17.40
2018-04-19T10:16:04.395Z,17.60
2018-04-19T10:18:32.948Z,17.80
2018-04-19T10:21:01.451Z,17.90
2018-04-19T10:23:30.423Z,17.80
2018-04-19T10:25:59.368Z,18.00
2018-04-19T10:28:28.616Z,18.10
2018-04-19T10:30:57.604Z,18.10
2018-04-19T10:33:30.500Z,18.60
2018-04-19T10:35:59.075Z,18.60
2018-04-19T10:38:28.871Z,18.70
2018-04-19T10:40:58.229Z,18.80
2018-04-19T10:43:27.240Z,18.80
2018-04-19T10:45:56.378Z,18.50
2018-04-19T10:48:25.310Z,18.30
2018-04-19T10:50:54.067Z,18.40
2018-04-19T10:53:22.831Z,18.40
2018-04-19T10:55:51.473Z,18.60
2018-04-19T10:58:20.164Z,18.60
2018-04-19T11:00:48.833Z,18.90
2018-04-19T11:03:17.609Z,19.30
2018-04-19T11:05:47.766Z,19.50
2018-04-19T11:08:16.485Z,19.50
2018-04-19T11:10:45.225Z,19.60
2018-04-19T11:13:14.365Z,19.60
2018-04-19T11:15:43.708Z,19.70
2018-04-19T11:18:12.220Z,20.20
2018-04-19T11:20:40.773Z,19.80
2018-04-19T11:23:09.820Z,19.70
2018-04-19T11:25:39.701Z,20.10
2018-04-19T11:28:08.446Z,20.00
2018-04-19T11:30:37.644Z,20.20
2018-04-19T11:33:07.861Z,20.40
2018-04-19T11:35:36.945Z,20.30
2018-04-19T11:38:05.532Z,20.70
2018-04-19T11:40:34.356Z,20.80
2018-04-19T11:43:03.023Z,20.70
2018-04-19T11:45:32.064Z,20.70
2018-04-19T11:48:05.352Z,20.90
2018-04-19T11:50:34.900Z,20.80
2018-04-19T11:53:04.000Z,20.70
2018-04-19T11:55:32.477Z,20.80
2018-04-19T11:58:01.277Z,21.10
2018-04-19T12:00:29.970Z,21.00
2018-04-19T12:02:59.583Z,21.00
2018-04-19T12:05:28.106Z,20.70
2018-04-19T12:07:58.149Z,20.00
2018-04-19T12:10:27.515Z,20.60
2018-04-19T12:12:57.157Z,20.50
2018-04-19T12:15:26.200Z,20.70
2018-04-19T12:17:55.368Z,20.80
2018-04-19T12:20:24.305Z,21.20
2018-04-19T12:22:53.160Z,21.30
2018-04-19T12:25:22.216Z,21.30
2018-04-19T12:27:51.385Z,21.20
2018-04-19T12:30:21.181Z,21.00
2018-04-19T12:32:49.939Z,20.90
2018-04-19T12:35:19.015Z,20.70
2018-04-19T12:37:48.523Z,20.40
2018-04-19T12:40:17.176Z,20.20
2018-04-19T12:42:45.838Z,20.00
2018-04-19T12:45:14.478Z,19.80
2018-04-19T12:47:44.500Z,19.90
2018-04-19T12:50:13.607Z,19.80
2018-04-19T12:52:43.068Z,19.80
2018-04-19T12:55:12.058Z,20.00
2018-04-19T12:57:41.477Z,19.80
2018-04-19T13:00:10.208Z,19.60
2018-04-19T13:02:38.964Z,19.50
2018-04-19T13:05:07.534Z,19.60
2018-04-19T13:07:36.467Z,19.50
2018-04-19T13:10:05.552Z,19.50
2018-04-19T13:12:34.447Z,19.80
2018-04-19T13:15:04.166Z,19.80
2018-04-19T13:17:33.447Z,19.70
2018-04-19T13:20:03.306Z,19.80
2018-04-19T13:22:32.155Z,20.00
2018-04-19T13:25:01.651Z,19.80
2018-04-19T13:27:30.651Z,19.70
2018-04-19T13:29:59.595Z,19.90
2018-04-19T13:32:28.593Z,20.10
2018-04-19T13:34:57.536Z,20.20
2018-04-19T13:37:26.979Z,20.20
2018-04-19T13:39:55.793Z,20.20
2018-04-19T13:42:24.958Z,20.10
2018-04-19T13:44:54.113Z,20.10
2018-04-19T13:47:22.802Z,20.40
2018-04-19T13:49:51.915Z,20.60
2018-04-19T13:52:20.917Z,20.50
2018-04-19T13:54:50.241Z,20.50
2018-04-19T13:57:18.874Z,20.00
2018-04-19T13:59:47.883Z,20.20
2018-04-19T14:02:16.619Z,20.70
2018-04-19T14:04:45.503Z,20.70
2018-04-19T14:07:14.222Z,21.00
2018-04-19T14:09:43.842Z,20.80
2018-04-19T14:12:12.919Z,20.70
2018-04-19T14:14:42.031Z,20.70
2018-04-19T14:17:10.965Z,20.70
2018-04-19T14:19:39.855Z,20.90
2018-04-19T14:22:08.825Z,21.10
2018-04-19T14:24:37.516Z,21.00
2018-04-19T14:27:06.686Z,20.80
2018-04-19T14:29:35.189Z,20.50
2018-04-19T14:32:03.695Z,20.40
2018-04-19T14:34:32.746Z,20.40
2018-04-19T14:37:11.969Z,20.40
2018-04-19T14:39:41.172Z,20.50
2018-04-19T14:42:09.773Z,20.40
2018-04-19T14:44:38.268Z,20.60
2018-04-19T14:47:07.852Z,20.50
2018-04-19T14:49:38.195Z,20.50
2018-04-19T14:52:07.724Z,20.50
2018-04-19T14:54:36.351Z,20.60
2018-04-19T14:57:05.267Z,20.80
2018-04-19T14:59:35.745Z,20.90
2018-04-19T15:02:04.681Z,20.60
2018-04-19T15:04:37.766Z,20.60
2018-04-19T15:07:06.551Z,20.70
2018-04-19T15:09:35.550Z,20.80
2018-04-19T15:12:04.203Z,20.90
2018-04-19T15:14:33.426Z,21.00
2018-04-19T15:17:02.479Z,21.10
2018-04-19T15:19:30.998Z,21.30
2018-04-19T15:22:00.325Z,21.30
2018-04-19T15:24:29.333Z,21.70
2018-04-19T15:26:57.978Z,21.70
2018-04-19T15:29:26.689Z,21.70
2018-04-19T15:31:55.387Z,21.80
2018-04-19T15:34:24.097Z,21.50
2018-04-19T15:36:53.382Z,21.40
2018-04-19T15:39:21.969Z,21.30
2018-04-19T15:41:50.445Z,21.50
2018-04-19T15:44:19.190Z,21.50
2018-04-19T15:46:47.916Z,21.50
2018-04-19T15:49:17.080Z,21.50
2018-04-19T15:51:45.556Z,21.50
2018-04-19T15:54:14.042Z,21.70
2018-04-19T15:56:42.650Z,21.80
2018-04-19T15:59:11.173Z,21.80
2018-04-19T16:01:41.458Z,21.70
2018-04-19T16:04:10.092Z,21.70
2018-04-19T16:06:41.510Z,21.70
2018-04-19T16:09:10.573Z,21.70
2018-04-19T16:11:39.245Z,21.80
2018-04-19T16:14:08.326Z,21.80
2018-04-19T16:16:37.113Z,21.70
2018-04-19T16:19:06.215Z,21.70
2018-04-19T16:21:35.109Z,21.60
2018-04-19T16:24:05.142Z,21.40
2018-04-19T16:26:33.808Z,21.40
2018-04-19T16:29:03.040Z,21.40
2018-04-19T16:31:31.848Z,21.50
2018-04-19T16:34:00.376Z,21.30
2018-04-19T16:36:28.841Z,21.20
2018-04-19T16:38:57.400Z,21.20
2018-04-19T16:41:27.736Z,21.00
2018-04-19T16:43:56.444Z,21.00
2018-04-19T16:46:25.725Z,21.00
2018-04-19T16:48:54.364Z,20.90
2018-04-19T16:51:22.890Z,20.80
2018-04-19T16:53:51.846Z,20.90
2018-04-19T16:56:20.636Z,20.90
2018-04-19T16:58:49.604Z,20.60
2018-04-19T17:01:18.794Z,20.70
2018-04-19T17:03:47.464Z,20.60
2018-04-19T17:06:16.481Z,20.40
2018-04-19T17:08:45.672Z,20.30
2018-04-19T17:11:14.520Z,20.10
2018-04-19T17:13:44.081Z,20.10
2018-04-19T17:16:12.962Z,20.00
2018-04-19T17:18:42.052Z,19.90
2018-04-19T17:21:10.530Z,19.80
2018-04-19T17:23:39.049Z,19.80
2018-04-19T17:26:07.591Z,19.60
2018-04-19T17:28:37.616Z,19.50
2018-04-19T17:31:06.556Z,19.50
2018-04-19T17:33:35.186Z,19.50
2018-04-19T17:36:04.487Z,19.20
2018-04-19T17:38:33.100Z,19.00
2018-04-19T17:41:01.775Z,18.90
2018-04-19T17:43:30.684Z,18.70
2018-04-19T17:45:59.171Z,18.60
2018-04-19T17:48:27.733Z,18.50
2018-04-19T17:50:57.027Z,18.50
2018-04-19T17:53:26.118Z,18.30
2018-04-19T17:55:55.244Z,18.20
2018-04-19T17:58:24.191Z,18.20
2018-04-19T18:00:53.806Z,18.10
2018-04-19T18:03:23.460Z,18.10
2018-04-19T18:05:51.948Z,17.90
2018-04-19T18:08:21.115Z,17.90
2018-04-19T18:10:51.324Z,17.80
2018-04-19T18:13:21.202Z,17.60
2018-04-19T18:15:49.938Z,17.60
2018-04-19T18:18:18.958Z,17.50
2018-04-19T18:20:47.696Z,17.50
2018-04-19T18:23:17.139Z,17.40
2018-04-19T18:25:46.812Z,17.40
2018-04-19T18:28:16.277Z,17.30
2018-04-19T18:30:44.819Z,17.20
2018-04-19T18:33:13.605Z,17.10
2018-04-19T18:35:42.376Z,17.00
2018-04-19T18:38:11.877Z,16.90
2018-04-19T18:40:40.517Z,16.80
2018-04-19T18:43:09.150Z,16.70
2018-04-19T18:45:39.046Z,16.60
2018-04-19T18:48:08.666Z,16.60
2018-04-19T18:50:38.529Z,16.60
2018-04-19T18:53:07.018Z,16.60
2018-04-19T18:55:35.953Z,16.50
2018-04-19T18:58:04.509Z,16.40
2018-04-19T19:00:32.986Z,16.30
2018-04-19T19:03:01.521Z,16.30
2018-04-19T19:05:34.906Z,16.40
2018-04-19T19:08:03.844Z,16.40
2018-04-19T19:10:33.431Z,16.40
2018-04-19T19:13:02.492Z,16.40
2018-04-19T19:18:54.992Z,16.20
2018-04-19T19:21:25.513Z,16.10
2018-04-19T19:23:55.005Z,16.00
2018-04-19T19:26:23.680Z,15.90
2018-04-19T19:28:52.344Z,15.80
2018-04-19T19:31:21.134Z,15.80
2018-04-19T19:33:49.649Z,15.80
2018-04-19T19:36:18.751Z,15.80
2018-04-19T19:38:47.430Z,15.80
2018-04-19T19:41:16.194Z,15.80
2018-04-19T19:43:53.385Z,15.70
2018-04-19T19:46:22.761Z,15.80
2018-04-19T19:48:51.598Z,15.60
2018-04-19T19:51:20.360Z,15.60
2018-04-19T19:53:49.293Z,15.60
2018-04-19T19:56:17.803Z,15.50
2018-04-19T19:58:46.358Z,15.50
2018-04-19T20:01:15.084Z,15.40
2018-04-19T20:03:43.781Z,15.40
2018-04-19T20:06:12.474Z,15.40
2018-04-19T20:08:41.572Z,15.40
2018-04-19T20:11:11.475Z,15.40
2018-04-19T20:13:40.419Z,15.40
2018-04-19T20:16:09.059Z,15.40
2018-04-19T20:18:37.608Z,15.40
2018-04-19T20:21:06.104Z,15.40
2018-04-19T20:23:34.916Z,15.30
2018-04-19T20:26:04.008Z,15.30
2018-04-19T20:28:32.609Z,15.30
2018-04-19T20:31:01.095Z,15.30
2018-04-19T20:33:29.730Z,15.30
2018-04-19T20:35:59.041Z,15.40
2018-04-19T20:38:27.723Z,15.40
2018-04-19T20:40:56.999Z,15.30
2018-04-19T20:43:25.506Z,15.30
2018-04-19T20:45:54.218Z,15.30
2018-04-19T20:48:23.414Z,15.30
2018-04-19T20:50:51.960Z,15.30
2018-04-19T20:53:21.350Z,15.10
2018-04-19T20:55:49.971Z,15.10
2018-04-19T20:58:19.215Z,15.20
2018-04-19T21:00:48.478Z,15.20
2018-04-19T21:03:17.978Z,15.10
2018-04-19T21:05:46.976Z,15.10
2018-04-19T21:08:15.742Z,15.00
2018-04-19T21:10:44.788Z,14.90
2018-04-19T21:13:13.755Z,14.70
2018-04-19T21:15:42.636Z,14.60
2018-04-19T21:18:11.640Z,14.50
2018-04-19T21:20:40.416Z,14.40
2018-04-19T21:23:09.513Z,14.30
2018-04-19T21:25:38.539Z,14.30
2018-04-19T21:28:07.579Z,14.30
2018-04-19T21:30:36.390Z,14.20
2018-04-19T21:33:05.067Z,14.10
2018-04-19T21:35:34.175Z,13.90
2018-04-19T21:38:03.600Z,13.80
2018-04-19T21:40:32.266Z,13.70
2018-04-19T21:43:00.959Z,13.70
2018-04-19T21:45:29.627Z,13.70
2018-04-19T21:47:58.316Z,13.60
2018-04-19T21:50:27.509Z,13.60
2018-04-19T21:52:56.149Z,13.60
2018-04-19T21:55:24.792Z,13.60
2018-04-19T21:57:53.837Z,13.50
2018-04-19T22:00:22.577Z,13.50
2018-04-19T22:02:51.763Z,13.50
2018-04-19T22:05:20.708Z,13.40
2018-04-19T22:07:50.799Z,13.30
2018-04-19T22:10:19.846Z,13.40
2018-04-19T22:12:48.966Z,13.30
2018-04-19T22:15:17.959Z,13.30
2018-04-19T22:17:47.160Z,13.30
2018-04-19T22:20:15.840Z,13.20
2018-04-19T22:22:44.939Z,13.20
2018-04-19T22:25:13.949Z,13.10
2018-04-19T22:27:42.615Z,13.00
2018-04-19T22:30:11.732Z,13.00
2018-04-19T22:32:40.824Z,13.00
2018-04-19T22:35:09.519Z,12.90
2018-04-19T22:37:38.689Z,12.80
2018-04-19T22:40:07.673Z,12.80
2018-04-19T22:42:36.391Z,12.80
2018-04-19T22:45:05.180Z,12.80
2018-04-19T22:47:34.252Z,12.90
2018-04-19T22:50:03.273Z,12.80
2018-04-19T22:52:31.935Z,12.70
2018-04-19T22:55:00.624Z,12.60
2018-04-19T22:57:29.394Z,12.70
2018-04-19T22:59:58.408Z,12.60
2018-04-19T23:02:27.501Z,12.60
2018-04-19T23:04:56.689Z,12.50
2018-04-19T23:07:25.749Z,12.40
2018-04-19T23:09:54.727Z,12.20
2018-04-19T23:12:23.974Z,12.20
2018-04-19T23:14:52.961Z,12.10
2018-04-19T23:17:21.785Z,12.00
2018-04-19T23:19:50.587Z,11.90
2018-04-19T23:22:31.336Z,11.80
2018-04-19T23:25:00.481Z,11.70
2018-04-19T23:27:29.204Z,11.70
2018-04-19T23:29:58.211Z,11.70
2018-04-19T23:32:27.381Z,11.70
2018-04-19T23:34:56.397Z,11.70
2018-04-19T23:37:25.922Z,11.60
2018-04-19T23:39:55.086Z,11.60
2018-04-19T23:42:23.769Z,11.60
2018-04-19T23:44:52.812Z,11.60
2018-04-19T23:47:21.879Z,11.60
2018-04-19T23:49:50.441Z,11.50
2018-04-19T23:52:19.331Z,11.50
2018-04-19T23:54:48.839Z,11.40
2018-04-19T23:57:17.847Z,11.40
2018-04-19T23:59:46.514Z,11.40
